sensor_id;sensor_type;location;lat;lon;timestamp;pressure;altitude;pressure_sealevel;temperature;humidity
12793;BME280;6460;42.684;23.260;2023-11-19T00:00:43;94581.81;;;3.13;100.00
12793;BME280;6460;42.684;23.260;2023-11-19T00:03:12;94576.09;;;3.37;100.00
12793;BME280;6460;42.684;23.260;2023-11-19T00:05:40;94577.47;;;3.26;100.00
12793;BME280;6460;42.684;23.260;2023-11-19T00:08:08;94592.81;;;3.29;100.00
12793;BME280;6460;42.684;23.260;2023-11-19T00:10:36;94581.72;;;3.35;100.00
12793;BME280;6460;42.684;23.260;2023-11-19T00:13:04;94569.84;;;3.33;100.00
12793;BME280;6460;42.684;23.260;2023-11-19T00:15:33;94568.13;;;3.28;100.00
12793;BME280;6460;42.684;23.260;2023-11-19T00:18:01;94575.50;;;3.40;100.00
12793;BME280;6460;42.684;23.260;2023-11-19T00:20:32;94595.66;;;3.41;100.00
12793;BME280;6460;42.684;23.260;2023-11-19T00:23:00;94587.97;;;3.31;100.00
12793;BME280;6460;42.684;23.260;2023-11-19T00:25:28;94575.31;;;3.36;100.00
12793;BME280;6460;42.684;23.260;2023-11-19T00:27:56;94584.38;;;3.35;100.00
12793;BME280;6460;42.684;23.260;2023-11-19T00:30:25;94568.59;;;3.30;100.00
12793;BME280;6460;42.684;23.260;2023-11-19T00:32:53;94591.09;;;3.33;100.00
12793;BME280;6460;42.684;23.260;2023-11-19T00:35:21;94574.69;;;3.31;100.00
12793;BME280;6460;42.684;23.260;2023-11-19T00:37:51;94596.41;;;3.33;100.00
12793;BME280;6460;42.684;23.260;2023-11-19T00:40:20;94586.69;;;3.19;100.00
12793;BME280;6460;42.684;23.260;2023-11-19T00:42:49;94607.47;;;3.26;100.00
12793;BME280;6460;42.684;23.260;2023-11-19T00:45:17;94610.72;;;3.14;100.00
12793;BME280;6460;42.684;23.260;2023-11-19T00:47:44;94603.44;;;3.29;100.00
12793;BME280;6460;42.684;23.260;2023-11-19T00:50:12;94594.53;;;3.25;100.00
12793;BME280;6460;42.684;23.260;2023-11-19T00:52:40;94599.06;;;3.33;100.00
12793;BME280;6460;42.684;23.260;2023-11-19T00:55:08;94574.06;;;3.25;100.00
12793;BME280;6460;42.684;23.260;2023-11-19T00:57:37;94607.38;;;3.40;100.00
12793;BME280;6460;42.684;23.260;2023-11-19T01:00:06;94591.72;;;3.30;100.00
12793;BME280;6460;42.684;23.260;2023-11-19T01:02:44;94580.00;;;3.31;100.00
12793;BME280;6460;42.684;23.260;2023-11-19T01:05:12;94590.47;;;3.36;100.00
12793;BME280;6460;42.684;23.260;2023-11-19T01:07:41;94597.19;;;3.25;100.00
12793;BME280;6460;42.684;23.260;2023-11-19T01:10:11;94603.09;;;3.22;100.00
12793;BME280;6460;42.684;23.260;2023-11-19T01:12:39;94657.72;;;3.14;100.00
12793;BME280;6460;42.684;23.260;2023-11-19T01:15:07;94580.44;;;3.15;100.00
12793;BME280;6460;42.684;23.260;2023-11-19T01:17:37;94592.28;;;3.09;100.00
12793;BME280;6460;42.684;23.260;2023-11-19T01:20:06;94580.75;;;3.22;100.00
12793;BME280;6460;42.684;23.260;2023-11-19T01:22:35;94589.81;;;3.22;100.00
12793;BME280;6460;42.684;23.260;2023-11-19T01:25:03;94590.16;;;3.29;100.00
12793;BME280;6460;42.684;23.260;2023-11-19T01:27:33;94606.72;;;3.34;100.00
12793;BME280;6460;42.684;23.260;2023-11-19T01:30:02;94584.19;;;3.14;100.00
12793;BME280;6460;42.684;23.260;2023-11-19T01:32:31;94590.91;;;3.20;100.00
12793;BME280;6460;42.684;23.260;2023-11-19T01:34:59;94608.72;;;3.20;100.00
12793;BME280;6460;42.684;23.260;2023-11-19T01:37:27;94594.78;;;3.14;100.00
12793;BME280;6460;42.684;23.260;2023-11-19T01:39:55;94610.22;;;3.04;100.00
12793;BME280;6460;42.684;23.260;2023-11-19T01:42:23;94594.00;;;3.14;100.00
12793;BME280;6460;42.684;23.260;2023-11-19T01:45:00;94628.53;;;3.14;100.00
12793;BME280;6460;42.684;23.260;2023-11-19T01:47:29;94601.97;;;3.05;100.00
12793;BME280;6460;42.684;23.260;2023-11-19T01:49:57;94614.44;;;3.05;100.00
12793;BME280;6460;42.684;23.260;2023-11-19T01:52:25;94615.69;;;3.07;100.00
12793;BME280;6460;42.684;23.260;2023-11-19T01:54:54;94632.75;;;3.15;100.00
12793;BME280;6460;42.684;23.260;2023-11-19T01:57:23;94626.50;;;3.11;100.00
12793;BME280;6460;42.684;23.260;2023-11-19T01:59:52;94618.00;;;3.00;100.00
12793;BME280;6460;42.684;23.260;2023-11-19T02:02:23;94642.56;;;3.06;100.00
12793;BME280;6460;42.684;23.260;2023-11-19T02:04:51;94630.81;;;2.98;100.00
12793;BME280;6460;42.684;23.260;2023-11-19T02:07:20;94614.28;;;3.10;100.00
12793;BME280;6460;42.684;23.260;2023-11-19T02:09:48;94613.22;;;3.19;100.00
12793;BME280;6460;42.684;23.260;2023-11-19T02:12:16;94617.00;;;3.18;100.00
12793;BME280;6460;42.684;23.260;2023-11-19T02:14:44;94614.97;;;3.15;100.00
12793;BME280;6460;42.684;23.260;2023-11-19T02:17:27;94615.84;;;3.02;100.00
12793;BME280;6460;42.684;23.260;2023-11-19T02:19:57;94619.56;;;3.01;100.00
12793;BME280;6460;42.684;23.260;2023-11-19T02:22:25;94606.31;;;3.01;100.00
12793;BME280;6460;42.684;23.260;2023-11-19T02:24:58;94619.59;;;3.10;100.00
12793;BME280;6460;42.684;23.260;2023-11-19T02:27:31;94624.41;;;2.99;100.00
12793;BME280;6460;42.684;23.260;2023-11-19T02:30:02;94613.19;;;3.02;100.00
12793;BME280;6460;42.684;23.260;2023-11-19T02:32:34;94598.97;;;2.98;100.00
12793;BME280;6460;42.684;23.260;2023-11-19T02:35:05;94607.34;;;2.92;100.00
12793;BME280;6460;42.684;23.260;2023-11-19T02:37:34;94582.69;;;2.91;100.00
12793;BME280;6460;42.684;23.260;2023-11-19T02:40:02;94599.53;;;2.87;100.00
12793;BME280;6460;42.684;23.260;2023-11-19T02:42:31;94597.81;;;2.91;100.00
12793;BME280;6460;42.684;23.260;2023-11-19T02:44:59;94600.16;;;2.84;100.00
12793;BME280;6460;42.684;23.260;2023-11-19T02:47:29;94597.19;;;2.85;100.00
12793;BME280;6460;42.684;23.260;2023-11-19T02:49:57;94618.16;;;2.64;100.00
12793;BME280;6460;42.684;23.260;2023-11-19T02:52:24;94610.84;;;2.70;100.00
12793;BME280;6460;42.684;23.260;2023-11-19T02:54:52;94617.28;;;2.78;100.00
12793;BME280;6460;42.684;23.260;2023-11-19T02:57:20;94600.91;;;2.84;100.00
12793;BME280;6460;42.684;23.260;2023-11-19T02:59:48;94599.38;;;2.83;100.00
12793;BME280;6460;42.684;23.260;2023-11-19T03:02:16;94597.41;;;2.66;100.00
12793;BME280;6460;42.684;23.260;2023-11-19T03:04:46;94612.53;;;2.66;100.00
12793;BME280;6460;42.684;23.260;2023-11-19T03:07:14;94614.53;;;2.91;100.00
12793;BME280;6460;42.684;23.260;2023-11-19T03:09:42;94611.25;;;2.94;100.00
12793;BME280;6460;42.684;23.260;2023-11-19T03:12:10;94641.44;;;2.67;100.00
12793;BME280;6460;42.684;23.260;2023-11-19T03:14:38;94624.34;;;2.82;100.00
12793;BME280;6460;42.684;23.260;2023-11-19T03:17:06;94631.72;;;2.63;100.00
12793;BME280;6460;42.684;23.260;2023-11-19T03:19:35;94633.28;;;2.64;100.00
12793;BME280;6460;42.684;23.260;2023-11-19T03:22:05;94639.28;;;2.78;100.00
12793;BME280;6460;42.684;23.260;2023-11-19T03:24:33;94621.94;;;2.72;100.00
12793;BME280;6460;42.684;23.260;2023-11-19T03:27:02;94618.50;;;2.72;100.00
12793;BME280;6460;42.684;23.260;2023-11-19T03:29:30;94631.59;;;2.68;100.00
12793;BME280;6460;42.684;23.260;2023-11-19T03:31:58;94628.63;;;2.70;100.00
12793;BME280;6460;42.684;23.260;2023-11-19T03:34:26;94634.94;;;2.82;100.00
12793;BME280;6460;42.684;23.260;2023-11-19T03:36:54;94630.28;;;2.57;100.00
12793;BME280;6460;42.684;23.260;2023-11-19T03:39:24;94624.22;;;2.65;100.00
12793;BME280;6460;42.684;23.260;2023-11-19T03:41:53;94638.88;;;2.62;100.00
12793;BME280;6460;42.684;23.260;2023-11-19T03:44:21;94637.81;;;2.63;100.00
12793;BME280;6460;42.684;23.260;2023-11-19T03:46:49;94649.47;;;2.54;100.00
12793;BME280;6460;42.684;23.260;2023-11-19T03:49:17;94664.53;;;2.67;100.00
12793;BME280;6460;42.684;23.260;2023-11-19T03:51:45;94654.00;;;2.84;100.00
12793;BME280;6460;42.684;23.260;2023-11-19T03:54:13;94671.75;;;2.75;100.00
12793;BME280;6460;42.684;23.260;2023-11-19T03:56:43;94655.47;;;2.68;100.00
12793;BME280;6460;42.684;23.260;2023-11-19T03:59:11;94645.09;;;2.80;100.00
12793;BME280;6460;42.684;23.260;2023-11-19T04:01:39;94662.44;;;2.86;100.00
12793;BME280;6460;42.684;23.260;2023-11-19T04:04:07;94669.19;;;2.92;100.00
12793;BME280;6460;42.684;23.260;2023-11-19T04:06:35;94659.84;;;2.95;100.00
12793;BME280;6460;42.684;23.260;2023-11-19T04:09:03;94678.13;;;2.96;100.00
12793;BME280;6460;42.684;23.260;2023-11-19T04:11:31;94700.63;;;2.77;100.00
12793;BME280;6460;42.684;23.260;2023-11-19T04:14:01;94698.03;;;2.85;100.00
12793;BME280;6460;42.684;23.260;2023-11-19T04:16:29;94683.44;;;2.96;100.00
12793;BME280;6460;42.684;23.260;2023-11-19T04:18:57;94685.59;;;2.94;100.00
12793;BME280;6460;42.684;23.260;2023-11-19T04:21:25;94673.31;;;2.76;100.00
12793;BME280;6460;42.684;23.260;2023-11-19T04:23:53;94688.03;;;2.82;100.00
12793;BME280;6460;42.684;23.260;2023-11-19T04:26:21;94681.25;;;2.98;100.00
12793;BME280;6460;42.684;23.260;2023-11-19T04:28:49;94683.16;;;2.76;100.00
12793;BME280;6460;42.684;23.260;2023-11-19T04:31:18;94688.38;;;2.89;100.00
12793;BME280;6460;42.684;23.260;2023-11-19T04:33:46;94687.84;;;2.79;100.00
12793;BME280;6460;42.684;23.260;2023-11-19T04:36:18;94689.03;;;2.95;100.00
12793;BME280;6460;42.684;23.260;2023-11-19T04:38:50;94705.88;;;2.90;100.00
12793;BME280;6460;42.684;23.260;2023-11-19T04:41:18;94695.00;;;2.78;100.00
12793;BME280;6460;42.684;23.260;2023-11-19T04:43:45;94677.44;;;2.91;100.00
12793;BME280;6460;42.684;23.260;2023-11-19T04:46:13;94693.38;;;2.68;100.00
12793;BME280;6460;42.684;23.260;2023-11-19T04:48:43;94664.00;;;2.87;100.00
12793;BME280;6460;42.684;23.260;2023-11-19T04:51:11;94681.31;;;2.85;100.00
12793;BME280;6460;42.684;23.260;2023-11-19T04:53:39;94680.09;;;2.91;100.00
12793;BME280;6460;42.684;23.260;2023-11-19T04:56:10;94684.53;;;3.04;100.00
12793;BME280;6460;42.684;23.260;2023-11-19T04:58:39;94677.44;;;2.91;100.00
12793;BME280;6460;42.684;23.260;2023-11-19T05:01:13;94677.41;;;2.82;100.00
12793;BME280;6460;42.684;23.260;2023-11-19T05:03:44;94698.56;;;2.96;100.00
12793;BME280;6460;42.684;23.260;2023-11-19T05:06:13;94699.25;;;2.79;100.00
12793;BME280;6460;42.684;23.260;2023-11-19T05:08:41;94712.47;;;2.71;100.00
12793;BME280;6460;42.684;23.260;2023-11-19T05:11:09;94716.66;;;2.94;100.00
12793;BME280;6460;42.684;23.260;2023-11-19T05:13:38;94705.28;;;2.93;100.00
12793;BME280;6460;42.684;23.260;2023-11-19T05:16:06;94713.16;;;2.85;100.00
12793;BME280;6460;42.684;23.260;2023-11-19T05:18:35;94708.41;;;2.73;100.00
12793;BME280;6460;42.684;23.260;2023-11-19T05:21:05;94706.13;;;2.58;100.00
12793;BME280;6460;42.684;23.260;2023-11-19T05:23:34;94718.25;;;2.50;100.00
12793;BME280;6460;42.684;23.260;2023-11-19T05:26:02;94733.78;;;2.65;100.00
12793;BME280;6460;42.684;23.260;2023-11-19T05:28:30;94704.38;;;2.53;100.00
12793;BME280;6460;42.684;23.260;2023-11-19T05:30:57;94720.94;;;2.59;100.00
12793;BME280;6460;42.684;23.260;2023-11-19T05:33:25;94735.13;;;2.54;100.00
12793;BME280;6460;42.684;23.260;2023-11-19T05:35:53;94720.53;;;2.43;100.00
12793;BME280;6460;42.684;23.260;2023-11-19T05:38:24;94730.81;;;2.58;100.00
12793;BME280;6460;42.684;23.260;2023-11-19T05:40:53;94721.78;;;2.46;100.00
12793;BME280;6460;42.684;23.260;2023-11-19T05:43:21;94708.78;;;2.58;100.00
12793;BME280;6460;42.684;23.260;2023-11-19T05:45:49;94732.72;;;2.66;100.00
12793;BME280;6460;42.684;23.260;2023-11-19T05:48:17;94750.25;;;2.54;100.00
12793;BME280;6460;42.684;23.260;2023-11-19T05:50:45;94722.72;;;2.63;100.00
12793;BME280;6460;42.684;23.260;2023-11-19T05:53:15;94716.75;;;2.80;100.00
12793;BME280;6460;42.684;23.260;2023-11-19T05:55:43;94716.75;;;2.80;100.00
12793;BME280;6460;42.684;23.260;2023-11-19T05:58:12;94729.69;;;2.59;100.00
12793;BME280;6460;42.684;23.260;2023-11-19T06:00:40;94733.13;;;2.60;100.00
12793;BME280;6460;42.684;23.260;2023-11-19T06:03:07;94751.16;;;2.72;100.00
12793;BME280;6460;42.684;23.260;2023-11-19T06:05:35;94751.56;;;2.65;100.00
12793;BME280;6460;42.684;23.260;2023-11-19T06:08:02;94747.00;;;2.57;100.00
12793;BME280;6460;42.684;23.260;2023-11-19T06:10:29;94753.19;;;2.52;100.00
12793;BME280;6460;42.684;23.260;2023-11-19T06:12:59;94754.97;;;2.57;100.00
12793;BME280;6460;42.684;23.260;2023-11-19T06:15:30;94761.13;;;2.66;100.00
12793;BME280;6460;42.684;23.260;2023-11-19T06:17:58;94742.59;;;2.52;100.00
12793;BME280;6460;42.684;23.260;2023-11-19T06:20:27;94741.03;;;2.51;100.00
12793;BME280;6460;42.684;23.260;2023-11-19T06:22:54;94741.22;;;2.55;100.00
12793;BME280;6460;42.684;23.260;2023-11-19T06:25:22;94741.69;;;2.57;100.00
12793;BME280;6460;42.684;23.260;2023-11-19T06:27:50;94764.50;;;2.58;100.00
12793;BME280;6460;42.684;23.260;2023-11-19T06:30:18;94760.88;;;2.54;100.00
12793;BME280;6460;42.684;23.260;2023-11-19T06:32:46;94764.59;;;2.53;100.00
12793;BME280;6460;42.684;23.260;2023-11-19T06:35:13;94767.44;;;2.56;100.00
12793;BME280;6460;42.684;23.260;2023-11-19T06:37:41;94761.88;;;2.44;100.00
12793;BME280;6460;42.684;23.260;2023-11-19T06:40:10;94780.63;;;2.48;100.00
12793;BME280;6460;42.684;23.260;2023-11-19T06:42:38;94777.38;;;2.51;100.00
12793;BME280;6460;42.684;23.260;2023-11-19T06:45:07;94766.88;;;2.46;100.00
12793;BME280;6460;42.684;23.260;2023-11-19T06:47:36;94794.84;;;2.30;100.00
12793;BME280;6460;42.684;23.260;2023-11-19T06:50:04;94764.47;;;2.36;100.00
12793;BME280;6460;42.684;23.260;2023-11-19T06:52:33;94753.50;;;2.51;100.00
12793;BME280;6460;42.684;23.260;2023-11-19T06:55:01;94776.31;;;2.52;100.00
12793;BME280;6460;42.684;23.260;2023-11-19T06:57:29;94755.97;;;2.47;100.00
12793;BME280;6460;42.684;23.260;2023-11-19T06:59:57;94756.03;;;2.56;100.00
12793;BME280;6460;42.684;23.260;2023-11-19T07:02:25;94756.75;;;2.48;100.00
12793;BME280;6460;42.684;23.260;2023-11-19T07:04:55;94752.84;;;2.45;100.00
12793;BME280;6460;42.684;23.260;2023-11-19T07:07:22;94755.78;;;2.44;100.00
12793;BME280;6460;42.684;23.260;2023-11-19T07:09:49;94792.81;;;2.49;100.00
12793;BME280;6460;42.684;23.260;2023-11-19T07:12:17;94786.88;;;2.30;100.00
12793;BME280;6460;42.684;23.260;2023-11-19T07:14:45;94804.94;;;2.28;100.00
12793;BME280;6460;42.684;23.260;2023-11-19T07:17:12;94767.72;;;2.33;100.00
12793;BME280;6460;42.684;23.260;2023-11-19T07:19:41;94799.81;;;2.31;100.00
12793;BME280;6460;42.684;23.260;2023-11-19T07:22:10;94773.28;;;2.45;100.00
12793;BME280;6460;42.684;23.260;2023-11-19T07:24:39;94781.22;;;2.45;100.00
12793;BME280;6460;42.684;23.260;2023-11-19T07:27:07;94773.09;;;2.41;100.00
12793;BME280;6460;42.684;23.260;2023-11-19T07:29:36;94768.88;;;2.62;100.00
12793;BME280;6460;42.684;23.260;2023-11-19T07:32:04;94768.22;;;2.57;100.00
12793;BME280;6460;42.684;23.260;2023-11-19T07:34:32;94825.47;;;2.36;100.00
12793;BME280;6460;42.684;23.260;2023-11-19T07:37:01;94793.50;;;2.41;100.00
12793;BME280;6460;42.684;23.260;2023-11-19T07:39:30;94797.03;;;2.50;100.00
12793;BME280;6460;42.684;23.260;2023-11-19T07:41:58;94790.88;;;2.41;100.00
12793;BME280;6460;42.684;23.260;2023-11-19T07:44:27;94794.56;;;2.53;100.00
12793;BME280;6460;42.684;23.260;2023-11-19T07:46:54;94795.22;;;2.59;100.00
12793;BME280;6460;42.684;23.260;2023-11-19T07:49:22;94785.72;;;2.58;100.00
12793;BME280;6460;42.684;23.260;2023-11-19T07:51:50;94790.16;;;2.49;100.00
12793;BME280;6460;42.684;23.260;2023-11-19T07:54:17;94803.53;;;2.44;100.00
12793;BME280;6460;42.684;23.260;2023-11-19T07:56:48;94796.22;;;2.49;100.00
12793;BME280;6460;42.684;23.260;2023-11-19T07:59:16;94806.63;;;2.59;100.00
12793;BME280;6460;42.684;23.260;2023-11-19T08:01:43;94798.97;;;2.58;100.00
12793;BME280;6460;42.684;23.260;2023-11-19T08:04:11;94813.91;;;2.54;100.00
12793;BME280;6460;42.684;23.260;2023-11-19T08:06:39;94843.63;;;2.42;100.00
12793;BME280;6460;42.684;23.260;2023-11-19T08:09:06;94810.81;;;2.38;100.00
12793;BME280;6460;42.684;23.260;2023-11-19T08:11:39;94827.88;;;2.46;100.00
12793;BME280;6460;42.684;23.260;2023-11-19T08:14:08;94869.56;;;2.32;100.00
12793;BME280;6460;42.684;23.260;2023-11-19T08:16:36;94834.59;;;2.30;100.00
12793;BME280;6460;42.684;23.260;2023-11-19T08:19:03;94867.19;;;2.44;100.00
12793;BME280;6460;42.684;23.260;2023-11-19T08:21:31;94834.69;;;2.25;100.00
12793;BME280;6460;42.684;23.260;2023-11-19T08:23:58;94822.22;;;2.39;100.00
12793;BME280;6460;42.684;23.260;2023-11-19T08:26:26;94817.78;;;2.48;100.00
12793;BME280;6460;42.684;23.260;2023-11-19T10:25:24;94787.59;;;3.02;81.87
12793;BME280;6460;42.684;23.260;2023-11-19T10:27:53;94781.50;;;3.01;82.55
12793;BME280;6460;42.684;23.260;2023-11-19T10:30:21;94765.94;;;3.08;82.79
12793;BME280;6460;42.684;23.260;2023-11-19T10:33:04;94746.53;;;2.99;82.06
12793;BME280;6460;42.684;23.260;2023-11-19T10:35:32;94751.91;;;3.16;82.26
12793;BME280;6460;42.684;23.260;2023-11-19T10:38:00;94739.66;;;3.29;81.61
12793;BME280;6460;42.684;23.260;2023-11-19T10:40:41;94756.38;;;3.30;81.41
12793;BME280;6460;42.684;23.260;2023-11-19T10:43:09;94760.09;;;3.51;81.47
12793;BME280;6460;42.684;23.260;2023-11-19T10:45:37;94756.53;;;3.64;80.89
12793;BME280;6460;42.684;23.260;2023-11-19T10:48:05;94758.97;;;3.52;80.71
12793;BME280;6460;42.684;23.260;2023-11-19T10:50:33;94762.19;;;3.71;80.20
12793;BME280;6460;42.684;23.260;2023-11-19T10:53:02;94766.78;;;3.88;80.16
12793;BME280;6460;42.684;23.260;2023-11-19T10:55:30;94750.19;;;3.82;79.86
12793;BME280;6460;42.684;23.260;2023-11-19T10:58:01;94753.78;;;3.86;79.08
12793;BME280;6460;42.684;23.260;2023-11-19T11:00:30;94752.59;;;4.01;78.01
12793;BME280;6460;42.684;23.260;2023-11-19T11:03:01;94745.63;;;4.31;77.69
12793;BME280;6460;42.684;23.260;2023-11-19T11:05:32;94748.91;;;4.45;75.79
12793;BME280;6460;42.684;23.260;2023-11-19T11:08:00;94714.94;;;4.59;75.22
12793;BME280;6460;42.684;23.260;2023-11-19T11:10:32;94722.44;;;4.82;74.77
12793;BME280;6460;42.684;23.260;2023-11-19T11:13:05;94710.84;;;4.87;73.04
12793;BME280;6460;42.684;23.260;2023-11-19T11:15:34;94698.38;;;5.25;72.39
12793;BME280;6460;42.684;23.260;2023-11-19T11:18:02;94705.78;;;5.20;70.41
12793;BME280;6460;42.684;23.260;2023-11-19T11:20:31;94694.25;;;5.37;69.68
12793;BME280;6460;42.684;23.260;2023-11-19T11:23:26;94717.25;;;5.03;70.79
12793;BME280;6460;42.684;23.260;2023-11-19T11:26:09;94696.34;;;5.22;71.25
12793;BME280;6460;42.684;23.260;2023-11-19T11:28:48;94699.91;;;5.73;69.83
12793;BME280;6460;42.684;23.260;2023-11-19T11:31:29;94696.88;;;5.83;67.96
12793;BME280;6460;42.684;23.260;2023-11-19T11:34:43;94694.53;;;5.81;67.99
12793;BME280;6460;42.684;23.260;2023-11-19T11:37:19;94681.25;;;6.31;65.64
12793;BME280;6460;42.684;23.260;2023-11-19T11:39:49;94686.59;;;6.31;64.69
12793;BME280;6460;42.684;23.260;2023-11-19T11:42:33;94672.06;;;6.41;64.48
12793;BME280;6460;42.684;23.260;2023-11-19T11:45:04;94666.50;;;6.67;64.92
12793;BME280;6460;42.684;23.260;2023-11-19T11:48:08;94671.75;;;6.75;62.75
12793;BME280;6460;42.684;23.260;2023-11-19T11:50:47;94653.84;;;6.76;62.28
12793;BME280;6460;42.684;23.260;2023-11-19T11:53:17;94655.00;;;6.87;61.95
12793;BME280;6460;42.684;23.260;2023-11-19T11:55:58;94665.19;;;6.73;62.46
12793;BME280;6460;42.684;23.260;2023-11-19T11:58:31;94664.34;;;6.93;60.04
12793;BME280;6460;42.684;23.260;2023-11-19T12:01:02;94663.16;;;7.03;59.10
12793;BME280;6460;42.684;23.260;2023-11-19T12:03:32;94660.13;;;7.37;59.10
12793;BME280;6460;42.684;23.260;2023-11-19T12:05:59;94659.88;;;6.85;58.14
12793;BME280;6460;42.684;23.260;2023-11-19T12:08:29;94656.72;;;6.71;58.65
12793;BME280;6460;42.684;23.260;2023-11-19T12:10:58;94645.59;;;6.69;59.61
12793;BME280;6460;42.684;23.260;2023-11-19T12:13:44;94650.38;;;7.08;57.70
12793;BME280;6460;42.684;23.260;2023-11-19T12:16:14;94638.53;;;6.85;58.56
12793;BME280;6460;42.684;23.260;2023-11-19T12:18:42;94642.03;;;6.23;59.79
12793;BME280;6460;42.684;23.260;2023-11-19T12:21:09;94628.56;;;6.73;59.75
12793;BME280;6460;42.684;23.260;2023-11-19T12:23:45;94627.19;;;6.88;60.36
12793;BME280;6460;42.684;23.260;2023-11-19T12:26:38;94617.44;;;7.40;58.40
12793;BME280;6460;42.684;23.260;2023-11-19T12:29:06;94632.81;;;7.19;57.56
12793;BME280;6460;42.684;23.260;2023-11-19T12:31:35;94617.34;;;7.49;56.78
12793;BME280;6460;42.684;23.260;2023-11-19T12:34:06;94613.84;;;7.85;55.46
12793;BME280;6460;42.684;23.260;2023-11-19T12:36:38;94614.44;;;7.90;54.78
12793;BME280;6460;42.684;23.260;2023-11-19T12:39:06;94607.44;;;7.62;56.14
12793;BME280;6460;42.684;23.260;2023-11-19T12:41:49;94618.66;;;7.79;55.90
12793;BME280;6460;42.684;23.260;2023-11-19T12:44:16;94606.09;;;7.56;57.14
12793;BME280;6460;42.684;23.260;2023-11-19T12:46:45;94594.91;;;7.90;55.06
12793;BME280;6460;42.684;23.260;2023-11-19T12:49:12;94606.28;;;7.63;56.06
12793;BME280;6460;42.684;23.260;2023-11-19T12:51:40;94599.63;;;7.44;57.77
12793;BME280;6460;42.684;23.260;2023-11-19T12:54:07;94596.06;;;7.65;57.79
12793;BME280;6460;42.684;23.260;2023-11-19T12:56:34;94598.94;;;7.72;58.55
12793;BME280;6460;42.684;23.260;2023-11-19T12:59:10;94595.59;;;7.87;58.83
12793;BME280;6460;42.684;23.260;2023-11-19T13:01:38;94586.72;;;7.47;58.04
12793;BME280;6460;42.684;23.260;2023-11-19T13:04:18;94589.47;;;7.50;58.00
12793;BME280;6460;42.684;23.260;2023-11-19T13:06:46;94596.72;;;7.74;53.61
12793;BME280;6460;42.684;23.260;2023-11-19T13:09:22;94583.66;;;7.84;52.71
12793;BME280;6460;42.684;23.260;2023-11-19T13:11:50;94581.38;;;7.98;51.97
12793;BME280;6460;42.684;23.260;2023-11-19T13:14:18;94579.78;;;8.22;51.98
12793;BME280;6460;42.684;23.260;2023-11-19T13:16:45;94584.88;;;7.87;52.55
12793;BME280;6460;42.684;23.260;2023-11-19T13:19:13;94584.91;;;7.63;51.91
12793;BME280;6460;42.684;23.260;2023-11-19T13:21:43;94576.53;;;7.76;53.25
12793;BME280;6460;42.684;23.260;2023-11-19T13:24:12;94569.63;;;7.87;51.21
12793;BME280;6460;42.684;23.260;2023-11-19T13:26:40;94579.13;;;7.49;50.77
12793;BME280;6460;42.684;23.260;2023-11-19T13:29:07;94578.47;;;7.52;51.38
12793;BME280;6460;42.684;23.260;2023-11-19T13:31:36;94581.78;;;7.24;51.93
12793;BME280;6460;42.684;23.260;2023-11-19T13:34:04;94574.13;;;7.11;53.11
12793;BME280;6460;42.684;23.260;2023-11-19T13:36:33;94577.00;;;6.61;52.33
12793;BME280;6460;42.684;23.260;2023-11-19T13:39:01;94566.22;;;7.14;51.18
12793;BME280;6460;42.684;23.260;2023-11-19T13:41:28;94582.34;;;7.06;48.76
12793;BME280;6460;42.684;23.260;2023-11-19T13:43:56;94584.94;;;7.14;48.86
12793;BME280;6460;42.684;23.260;2023-11-19T13:46:23;94586.25;;;7.08;49.61
12793;BME280;6460;42.684;23.260;2023-11-19T13:48:50;94592.47;;;7.24;49.97
12793;BME280;6460;42.684;23.260;2023-11-19T13:51:17;94586.94;;;7.29;49.59
12793;BME280;6460;42.684;23.260;2023-11-19T13:53:45;94588.16;;;7.20;50.14
12793;BME280;6460;42.684;23.260;2023-11-19T13:56:13;94589.47;;;7.38;50.08
12793;BME280;6460;42.684;23.260;2023-11-19T13:58:41;94574.28;;;7.90;48.89
12793;BME280;6460;42.684;23.260;2023-11-19T14:01:08;94577.81;;;8.07;48.05
12793;BME280;6460;42.684;23.260;2023-11-19T14:03:38;94581.91;;;7.64;49.05
12793;BME280;6460;42.684;23.260;2023-11-19T14:06:06;94586.69;;;8.23;48.64
12793;BME280;6460;42.684;23.260;2023-11-19T14:08:34;94596.00;;;8.01;48.63
12793;BME280;6460;42.684;23.260;2023-11-19T14:11:01;94602.53;;;7.39;50.11
12793;BME280;6460;42.684;23.260;2023-11-19T14:13:30;94600.19;;;7.62;50.55
12793;BME280;6460;42.684;23.260;2023-11-19T14:15:58;94597.94;;;7.64;49.80
12793;BME280;6460;42.684;23.260;2023-11-19T14:18:25;94603.59;;;7.02;51.76
12793;BME280;6460;42.684;23.260;2023-11-19T14:20:52;94620.41;;;7.15;52.31
12793;BME280;6460;42.684;23.260;2023-11-19T14:23:19;94609.66;;;7.23;52.20
12793;BME280;6460;42.684;23.260;2023-11-19T14:25:47;94616.44;;;7.21;52.02
12793;BME280;6460;42.684;23.260;2023-11-19T14:28:15;94600.47;;;7.00;53.11
12793;BME280;6460;42.684;23.260;2023-11-19T14:30:44;94603.38;;;6.95;54.21
12793;BME280;6460;42.684;23.260;2023-11-19T14:33:12;94600.13;;;6.89;53.61
12793;BME280;6460;42.684;23.260;2023-11-19T14:35:39;94602.63;;;6.74;55.48
12793;BME280;6460;42.684;23.260;2023-11-19T14:38:06;94599.94;;;6.62;55.56
12793;BME280;6460;42.684;23.260;2023-11-19T14:40:35;94591.84;;;6.70;56.09
12793;BME280;6460;42.684;23.260;2023-11-19T14:43:02;94600.06;;;6.65;56.52
12793;BME280;6460;42.684;23.260;2023-11-19T14:45:29;94598.50;;;6.64;56.83
12793;BME280;6460;42.684;23.260;2023-11-19T14:47:58;94595.03;;;6.64;56.71
12793;BME280;6460;42.684;23.260;2023-11-19T14:50:26;94604.59;;;6.53;56.63
12793;BME280;6460;42.684;23.260;2023-11-19T14:52:54;94603.03;;;6.52;57.48
12793;BME280;6460;42.684;23.260;2023-11-19T14:55:21;94601.94;;;6.32;58.32
12793;BME280;6460;42.684;23.260;2023-11-19T14:57:48;94603.06;;;6.10;60.02
12793;BME280;6460;42.684;23.260;2023-11-19T15:00:17;94592.06;;;6.12;60.50
12793;BME280;6460;42.684;23.260;2023-11-19T15:02:44;94598.25;;;6.04;62.51
12793;BME280;6460;42.684;23.260;2023-11-19T15:05:13;94603.38;;;5.88;65.02
12793;BME280;6460;42.684;23.260;2023-11-19T15:07:40;94606.16;;;5.42;67.58
12793;BME280;6460;42.684;23.260;2023-11-19T15:10:08;94619.72;;;5.57;68.27
12793;BME280;6460;42.684;23.260;2023-11-19T15:12:38;94613.59;;;5.57;68.51